Time;durP1;ratioP1;P1;durP2;ratioP2;P2;SDS_P1;SDS_P2;PMS_P1;PMS_P2;Temp;Humidity;BMP_temperature;BMP_pressure;BME280_temperature;BME280_humidity;BME280_pressure;Samples;Min_cycle;Max_cycle;Signal;HPM_P1;HPM_P2
2021/06/18 00:00:23;;;;;;;9.70;8.68;;;24.50;1.00;25.70;100195.00;;;;5015098;28;20425;-79
2021/06/18 00:02:52;;;;;;;9.30;8.07;;;24.50;1.00;25.60;100196.00;;;;5031832;28;20434;-79
2021/06/18 00:05:22;;;;;;;9.50;8.48;;;24.40;1.00;25.60;100192.00;;;;5032852;28;20442;-79
2021/06/18 00:07:50;;;;;;;9.60;8.60;;;24.40;1.00;25.50;100177.00;;;;5034010;28;20415;-79
2021/06/18 00:10:24;;;;;;;10.10;9.10;;;24.40;1.00;25.50;100180.00;;;;5019785;28;20523;-79
2021/06/18 00:12:53;;;;;;;12.30;9.50;;;24.30;1.00;25.50;100173.00;;;;5026527;28;20521;-79
2021/06/18 00:15:22;;;;;;;10.10;9.00;;;24.20;1.00;25.40;100179.00;;;;5034007;28;20431;-78
2021/06/18 00:17:51;;;;;;;13.02;9.73;;;24.10;1.00;25.30;100178.00;;;;5030598;28;20427;-79
2021/06/18 00:20:20;;;;;;;10.82;9.13;;;24.00;1.00;25.30;100176.00;;;;5020296;28;20435;-79
2021/06/18 00:22:49;;;;;;;11.90;9.73;;;24.00;1.00;25.20;100168.00;;;;5026325;28;20460;-79
2021/06/18 00:25:17;;;;;;;10.70;9.60;;;23.90;1.00;25.10;100164.00;;;;5038143;28;20423;-79
2021/06/18 00:27:47;;;;;;;10.50;9.40;;;23.80;1.00;25.10;100168.00;;;;5067732;28;20425;-79
2021/06/18 00:30:18;;;;;;;12.52;9.80;;;23.80;1.00;25.10;100169.00;;;;5046419;28;20454;-80
2021/06/18 00:32:47;;;;;;;11.20;9.63;;;23.80;1.00;25.00;100179.00;;;;5041180;28;20430;-80
2021/06/18 00:35:16;;;;;;;10.40;9.30;;;23.70;1.00;25.00;100169.00;;;;5032571;28;20527;-78
2021/06/18 00:37:44;;;;;;;11.88;9.35;;;23.70;1.00;24.90;100171.00;;;;5028444;28;20450;-79
2021/06/18 00:40:14;;;;;;;10.60;9.50;;;23.60;1.00;24.90;100169.00;;;;5017653;28;20424;-77
2021/06/18 00:42:42;;;;;;;11.30;10.20;;;23.60;1.00;24.80;100170.00;;;;5024503;28;20414;-79
2021/06/18 00:45:14;;;;;;;11.63;10.00;;;23.50;1.00;24.80;100166.00;;;;5032754;28;20425;-78
2021/06/18 00:47:49;;;;;;;10.40;9.40;;;23.40;1.00;24.70;100170.00;;;;5031112;28;20454;-77
2021/06/18 00:50:18;;;;;;;11.10;10.00;;;23.40;1.00;24.70;100164.00;;;;5031508;28;20485;-78
2021/06/18 00:52:48;;;;;;;11.40;10.20;;;23.40;1.00;24.70;100162.00;;;;5034667;28;20427;-77
2021/06/18 00:55:16;;;;;;;12.07;10.05;;;23.30;1.00;24.60;100165.00;;;;5028680;28;20430;-77
2021/06/18 00:57:45;;;;;;;11.48;10.30;;;23.20;1.00;24.60;100162.00;;;;5030651;28;20435;-76
2021/06/18 01:00:17;;;;;;;11.23;10.02;;;23.20;1.00;24.50;100163.00;;;;5031493;28;20506;-79
2021/06/18 01:02:47;;;;;;;11.40;10.10;;;23.10;1.00;24.50;100156.00;;;;5041092;28;20463;-78
2021/06/18 01:05:18;;;;;;;11.55;9.68;;;23.10;1.00;24.40;100156.00;;;;5023802;28;20451;-79
2021/06/18 01:08:00;;;;;;;10.30;9.30;;;23.10;1.00;24.40;100156.00;;;;5028069;28;20483;-78
2021/06/18 01:10:44;;;;;;;12.48;9.38;;;23.10;1.00;24.40;100172.00;;;;5023033;28;20431;-78
2021/06/18 01:13:26;;;;;;;11.37;9.40;;;23.00;1.00;24.40;100168.00;;;;5019661;28;20455;-77
2021/06/18 01:16:05;;;;;;;10.70;9.60;;;23.00;1.00;24.30;100168.00;;;;5030082;28;20488;-77
2021/06/18 01:18:42;;;;;;;11.40;9.25;;;23.00;1.00;24.30;100168.00;;;;5024369;28;20512;-77
2021/06/18 01:21:20;;;;;;;10.70;9.60;;;23.00;1.00;24.30;100171.00;;;;5013472;28;20435;-77
2021/06/18 01:24:05;;;;;;;12.32;9.90;;;23.00;1.00;24.30;100171.00;;;;5018502;28;20515;-78
2021/06/18 01:26:49;;;;;;;13.90;9.53;;;22.90;1.00;24.20;100170.00;;;;5036132;28;20515;-77
2021/06/18 01:29:21;;;;;;;11.40;10.15;;;22.80;1.40;24.10;100166.00;;;;5030357;28;20415;-78
2021/06/18 01:31:52;;;;;;;12.40;10.00;;;22.70;2.20;24.10;100176.00;;;;5026810;28;20501;-79
2021/06/18 01:34:27;;;;;;;10.90;9.80;;;22.70;2.50;24.10;100172.00;;;;5023491;28;20502;-79
2021/06/18 01:37:14;;;;;;;10.48;9.35;;;22.70;2.60;24.10;100173.00;;;;5022328;28;20578;-79
2021/06/18 01:39:45;;;;;;;12.95;9.90;;;22.80;2.60;24.00;100166.00;;;;5017637;28;20419;-77
2021/06/18 01:42:16;;;;;;;11.40;10.20;;;22.70;3.10;24.00;100168.00;;;;5027731;28;20451;-77
2021/06/18 01:44:47;;;;;;;11.50;10.30;;;22.70;4.00;23.90;100168.00;;;;5045883;28;20477;-78
2021/06/18 01:47:17;;;;;;;11.98;9.27;;;22.60;4.50;23.90;100158.00;;;;5028096;28;20431;-78
2021/06/18 01:49:47;;;;;;;11.15;10.00;;;22.60;3.10;23.90;100171.00;;;;5026142;28;20415;-78
2021/06/18 01:52:18;;;;;;;13.45;10.13;;;22.60;4.50;23.80;100161.00;;;;5026296;28;20522;-78
2021/06/18 01:54:48;;;;;;;12.60;11.30;;;22.40;5.50;23.70;100163.00;;;;5030192;28;20457;-80
2021/06/18 01:57:20;;;;;;;15.60;10.70;;;22.20;6.70;23.60;100165.00;;;;5023550;28;21040;-78
2021/06/18 01:59:52;;;;;;;13.40;10.23;;;22.10;7.20;23.50;100152.00;;;;5025354;28;21000;-78
2021/06/18 02:02:23;;;;;;;11.70;9.60;;;22.10;5.80;23.50;100148.00;;;;5038271;28;20435;-77
2021/06/18 02:04:54;;;;;;;11.80;9.83;;;22.10;4.50;23.50;100150.00;;;;5027406;28;20434;-80
2021/06/18 02:07:25;;;;;;;12.00;9.70;;;22.20;5.00;23.50;100150.00;;;;5010618;28;20513;-78
2021/06/18 02:09:55;;;;;;;14.23;9.68;;;22.20;4.90;23.40;100151.00;;;;5016184;28;20966;-79
2021/06/18 02:12:25;;;;;;;11.45;9.90;;;22.10;6.10;23.40;100155.00;;;;5022597;28;20421;-80
2021/06/18 02:14:56;;;;;;;11.10;9.20;;;22.00;6.40;23.30;100149.00;;;;5024767;28;20428;-79
2021/06/18 02:17:27;;;;;;;11.20;9.70;;;22.00;4.80;23.40;100155.00;;;;5031053;28;20427;-80
2021/06/18 02:19:57;;;;;;;12.18;9.43;;;22.00;5.20;23.40;100145.00;;;;5045328;28;20463;-77
2021/06/18 02:22:26;;;;;;;11.25;10.13;;;22.00;4.90;23.30;100150.00;;;;5033306;28;20415;-77
2021/06/18 02:24:56;;;;;;;11.40;9.50;;;22.00;5.20;23.20;100146.00;;;;5029395;28;20435;-78
2021/06/18 02:27:25;;;;;;;11.18;9.50;;;22.00;3.90;23.20;100144.00;;;;5039270;28;20457;-78
2021/06/18 02:29:55;;;;;;;9.80;8.80;;;22.00;3.20;23.10;100142.00;;;;5031525;28;20422;-78
2021/06/18 02:32:26;;;;;;;10.02;9.02;;;21.90;3.30;23.10;100138.00;;;;5046443;28;20533;-79
2021/06/18 02:34:55;;;;;;;11.63;9.43;;;21.90;4.40;23.10;100140.00;;;;5023455;28;20423;-78
2021/06/18 02:37:23;;;;;;;11.38;9.27;;;21.90;5.30;23.00;100145.00;;;;5022603;28;20527;-78
2021/06/18 02:39:51;;;;;;;13.27;9.77;;;21.70;6.00;22.90;100141.00;;;;5024796;28;20510;-77
2021/06/18 02:42:20;;;;;;;12.13;9.57;;;21.70;6.50;22.80;100139.00;;;;5031549;28;20422;-78
2021/06/18 02:44:48;;;;;;;11.18;9.50;;;21.60;7.20;22.80;100142.00;;;;5023662;28;20439;-79
2021/06/18 02:47:25;;;;;;;11.10;10.00;;;21.60;6.30;22.80;100143.00;;;;5032667;28;20431;-78
2021/06/18 02:49:59;;;;;;;11.13;9.90;;;21.60;7.30;22.70;100136.00;;;;5025620;28;20412;-79
2021/06/18 02:52:38;;;;;;;10.87;9.77;;;21.50;7.80;22.70;100143.00;;;;5028104;28;20510;-79
2021/06/18 02:55:13;;;;;;;13.32;9.73;;;21.50;7.30;22.70;100128.00;;;;5025055;28;20445;-79
2021/06/18 02:57:55;;;;;;;11.63;9.25;;;21.40;7.50;22.70;100141.00;;;;5032311;28;20429;-78
2021/06/18 03:00:25;;;;;;;10.90;9.80;;;21.40;7.60;22.60;100138.00;;;;5026897;28;20449;-79
2021/06/18 03:02:59;;;;;;;11.32;9.70;;;21.40;7.40;22.60;100139.00;;;;5029343;28;20506;-78
2021/06/18 03:05:30;;;;;;;12.95;9.02;;;21.40;6.60;22.60;100151.00;;;;5029472;28;20913;-78
2021/06/18 03:08:02;;;;;;;12.85;8.93;;;21.40;6.50;22.50;100150.00;;;;5025285;28;20493;-78
2021/06/18 03:10:40;;;;;;;10.40;9.30;;;21.30;5.40;22.50;100154.00;;;;5020345;28;20468;-78
2021/06/18 03:13:15;;;;;;;11.35;9.15;;;21.40;4.70;22.60;100148.00;;;;5029237;28;20432;-78
2021/06/18 03:15:47;;;;;;;11.15;9.10;;;21.40;4.30;22.60;100143.00;;;;5027183;28;20425;-78
2021/06/18 03:18:22;;;;;;;12.52;8.95;;;21.50;3.10;22.60;100146.00;;;;5030101;28;20430;-80
2021/06/18 03:20:55;;;;;;;11.50;9.70;;;21.50;2.90;22.70;100146.00;;;;5032267;28;20434;-78
2021/06/18 03:23:25;;;;;;;10.85;8.68;;;21.50;3.60;22.70;100148.00;;;;5034154;28;20961;-79
2021/06/18 03:25:55;;;;;;;13.00;9.20;;;21.50;3.70;22.70;100140.00;;;;5047265;28;20529;-79
2021/06/18 03:28:25;;;;;;;10.57;9.48;;;21.50;3.20;22.70;100147.00;;;;5031902;28;20419;-79
2021/06/18 03:30:54;;;;;;;11.63;9.15;;;21.50;2.80;22.70;100154.00;;;;5030655;28;20775;-79
2021/06/18 03:33:26;;;;;;;10.45;9.10;;;21.60;2.60;22.80;100161.00;;;;5018122;28;20471;-78
2021/06/18 03:35:56;;;;;;;11.70;9.10;;;21.60;2.50;22.80;100161.00;;;;5035450;28;20468;-79
2021/06/18 03:38:25;;;;;;;12.45;9.70;;;21.60;2.50;22.80;100168.00;;;;5046971;28;20500;-79
2021/06/18 03:40:53;;;;;;;12.60;8.97;;;21.60;2.40;22.80;100184.00;;;;5050645;28;20402;-81
2021/06/18 03:43:23;;;;;;;10.38;9.27;;;21.60;2.60;22.80;100175.00;;;;5030386;28;20417;-80
2021/06/18 03:46:00;;;;;;;10.93;9.23;;;21.60;2.70;22.90;100174.00;;;;5045576;28;20424;-79
2021/06/18 03:48:32;;;;;;;11.32;9.30;;;21.70;2.50;22.90;100163.00;;;;5054526;28;20426;-78
2021/06/18 03:51:01;;;;;;;12.70;8.93;;;21.70;2.40;22.90;100173.00;;;;5047953;28;20408;-79
2021/06/18 03:53:29;;;;;;;10.95;8.63;;;21.70;2.70;22.90;100156.00;;;;5024235;28;20451;-78
2021/06/18 03:55:58;;;;;;;12.00;9.77;;;21.60;2.60;22.90;100162.00;;;;5031310;28;20426;-78
2021/06/18 03:58:27;;;;;;;12.77;9.43;;;21.60;1.90;22.90;100169.00;;;;5026240;28;20446;-78
2021/06/18 04:00:57;;;;;;;12.68;8.60;;;21.60;1.80;22.90;100171.00;;;;5019215;28;20481;-79
2021/06/18 04:03:28;;;;;;;10.20;9.10;;;21.60;1.20;22.90;100179.00;;;;5033520;28;20513;-79
2021/06/18 04:06:04;;;;;;;11.60;9.10;;;21.70;1.10;22.90;100175.00;;;;5030806;28;20423;-78
2021/06/18 04:08:35;;;;;;;10.90;9.80;;;21.70;1.80;22.90;100177.00;;;;5031502;28;20955;-77
2021/06/18 04:11:06;;;;;;;11.35;9.50;;;21.80;1.20;22.90;100176.00;;;;5021431;28;20423;-77
2021/06/18 04:13:36;;;;;;;10.43;9.32;;;21.70;1.50;22.90;100173.00;;;;5019962;28;20424;-78
2021/06/18 04:16:07;;;;;;;11.25;9.52;;;21.70;1.30;23.00;100178.00;;;;5023252;28;20434;-78
2021/06/18 04:18:37;;;;;;;10.95;9.05;;;21.80;1.40;23.00;100179.00;;;;5033071;28;20423;-77
2021/06/18 04:21:19;;;;;;;11.63;9.13;;;21.90;1.30;23.10;100181.00;;;;5033223;28;20419;-78
2021/06/18 04:23:48;;;;;;;11.23;9.10;;;21.90;1.20;23.20;100176.00;;;;5024110;28;20428;-78
2021/06/18 04:26:19;;;;;;;11.68;9.43;;;22.00;1.00;23.20;100165.00;;;;5033202;28;20433;-79
2021/06/18 04:28:47;;;;;;;11.10;9.00;;;22.10;1.00;23.30;100170.00;;;;5024198;28;20426;-79
2021/06/18 04:31:16;;;;;;;10.60;9.60;;;22.10;1.00;23.30;100166.00;;;;5027950;28;20423;-78
2021/06/18 04:33:44;;;;;;;11.48;9.70;;;22.20;1.00;23.40;100166.00;;;;5031811;28;20427;-78
2021/06/18 04:36:15;;;;;;;13.73;9.80;;;22.20;1.00;23.50;100160.00;;;;5028897;28;20433;-78
2021/06/18 04:38:43;;;;;;;12.07;9.47;;;22.20;1.00;23.50;100169.00;;;;5020918;28;20515;-81
2021/06/18 04:41:12;;;;;;;13.00;9.20;;;22.30;1.00;23.60;100176.00;;;;5012052;28;20433;-78
2021/06/18 04:43:41;;;;;;;11.35;9.70;;;22.40;1.30;23.70;100184.00;;;;5025616;28;20438;-78
2021/06/18 04:46:09;;;;;;;11.73;9.30;;;22.40;1.00;23.80;100179.00;;;;5033107;28;20457;-78
2021/06/18 04:48:38;;;;;;;13.50;9.20;;;22.50;1.00;23.90;100193.00;;;;5041855;28;20422;-78
2021/06/18 04:51:06;;;;;;;9.25;8.35;;;22.70;1.00;23.90;100225.00;;;;5053560;28;20495;-79
2021/06/18 04:53:36;;;;;;;11.50;9.90;;;22.70;1.00;23.90;100219.00;;;;5052686;28;20419;-78
2021/06/18 04:56:06;;;;;;;11.75;8.90;;;22.80;1.00;24.00;100212.00;;;;5029134;28;20429;-78
2021/06/18 04:58:34;;;;;;;12.27;10.10;;;22.90;1.00;24.10;100209.00;;;;5026364;28;20417;-78
2021/06/18 05:01:04;;;;;;;10.50;9.43;;;23.00;1.00;24.20;100215.00;;;;5029060;28;20962;-78
2021/06/18 05:03:33;;;;;;;11.48;9.50;;;23.00;1.00;24.30;100214.00;;;;5029870;28;20423;-78
2021/06/18 05:06:02;;;;;;;12.40;9.93;;;23.10;1.00;24.40;100199.00;;;;5031077;28;20464;-78
2021/06/18 05:08:30;;;;;;;14.10;10.90;;;23.20;1.00;24.50;100216.00;;;;5049904;28;20963;-79
2021/06/18 05:11:00;;;;;;;13.40;10.07;;;23.20;1.00;24.60;100215.00;;;;5032495;28;20475;-79
2021/06/18 05:13:28;;;;;;;11.40;10.20;;;23.40;1.00;24.60;100211.00;;;;5029388;28;20423;-79
2021/06/18 05:15:56;;;;;;;12.93;10.88;;;23.50;1.00;24.60;100216.00;;;;5023406;28;20430;-79
2021/06/18 05:18:32;;;;;;;14.38;10.55;;;23.50;1.00;24.70;100218.00;;;;5027108;28;20446;-79
2021/06/18 05:21:00;;;;;;;15.00;10.67;;;23.60;1.00;24.80;100221.00;;;;5029972;28;20481;-79
2021/06/18 05:23:28;;;;;;;15.55;11.13;;;23.60;1.00;24.90;100228.00;;;;5020592;28;20417;-80
2021/06/18 05:25:58;;;;;;;13.95;11.05;;;23.80;1.00;25.00;100230.00;;;;5029177;28;20431;-78
2021/06/18 05:28:27;;;;;;;17.23;10.70;;;23.90;1.00;25.00;100234.00;;;;5021285;28;20459;-80
2021/06/18 05:30:55;;;;;;;13.93;11.07;;;23.90;1.00;25.10;100221.00;;;;5032487;28;20497;-80
2021/06/18 05:33:29;;;;;;;15.13;10.75;;;24.00;1.00;25.10;100206.00;;;;5026583;28;20463;-80
2021/06/18 05:35:57;;;;;;;13.35;10.60;;;24.10;1.00;25.10;100203.00;;;;5025896;28;20775;-79
2021/06/18 05:38:25;;;;;;;15.77;10.38;;;24.20;1.00;25.20;100219.00;;;;5028372;28;20419;-79
2021/06/18 05:40:54;;;;;;;12.88;10.40;;;24.30;1.00;25.30;100226.00;;;;5023801;28;20432;-79
2021/06/18 05:43:24;;;;;;;11.82;10.52;;;24.30;1.00;25.40;100213.00;;;;5024415;28;20429;-80
2021/06/18 05:45:53;;;;;;;11.13;10.03;;;24.40;1.00;25.60;100231.00;;;;5031131;28;20466;-80
2021/06/18 05:48:21;;;;;;;13.10;10.70;;;24.60;1.00;25.70;100246.00;;;;5029095;28;20443;-81
2021/06/18 05:50:51;;;;;;;12.35;10.05;;;24.70;1.00;25.80;100229.00;;;;5031910;28;20452;-80
2021/06/18 05:53:20;;;;;;;13.85;10.38;;;24.80;1.00;25.90;100234.00;;;;5020696;28;20515;-80
2021/06/18 05:55:49;;;;;;;12.40;10.23;;;24.90;1.00;26.00;100233.00;;;;5027009;28;21071;-80
2021/06/18 05:58:17;;;;;;;11.10;9.80;;;25.00;1.00;26.10;100236.00;;;;5023974;28;20489;-80
2021/06/18 06:00:47;;;;;;;11.70;10.50;;;25.10;1.00;26.10;100229.00;;;;5028150;28;20429;-79
2021/06/18 06:03:16;;;;;;;11.23;9.90;;;25.10;1.00;26.10;100232.00;;;;5021560;28;20411;-80
2021/06/18 06:05:44;;;;;;;12.15;10.32;;;25.10;1.00;26.20;100239.00;;;;5032000;28;20427;-80
2021/06/18 06:08:13;;;;;;;17.08;10.10;;;25.30;1.00;26.30;100235.00;;;;5026180;28;20455;-80
2021/06/18 06:10:47;;;;;;;17.08;10.95;;;25.40;1.00;26.40;100236.00;;;;5025937;28;20422;-80
2021/06/18 06:13:17;;;;;;;10.57;9.48;;;25.50;1.00;26.40;100239.00;;;;5024464;28;20426;-80
2021/06/18 06:15:47;;;;;;;13.50;11.93;;;25.60;1.00;26.60;100242.00;;;;5027872;28;20475;-80
2021/06/18 06:18:16;;;;;;;17.17;9.40;;;25.70;1.00;26.60;100238.00;;;;5032904;28;20415;-79
2021/06/18 06:20:46;;;;;;;11.20;9.20;;;25.80;1.00;26.70;100223.00;;;;5025016;28;20436;-79
2021/06/18 06:23:16;;;;;;;11.63;9.77;;;25.90;1.00;26.80;100223.00;;;;5027861;28;20904;-80
2021/06/18 06:25:44;;;;;;;11.25;9.57;;;25.90;1.00;26.90;100210.00;;;;5022846;28;20427;-80
2021/06/18 06:28:13;;;;;;;11.00;9.50;;;26.00;1.00;27.00;100228.00;;;;5028934;28;20475;-80
2021/06/18 06:30:42;;;;;;;9.85;8.90;;;26.10;1.00;27.10;100226.00;;;;5027422;28;20484;-79
2021/06/18 06:33:12;;;;;;;11.75;9.43;;;26.30;1.00;27.20;100200.00;;;;5030119;28;20455;-80
2021/06/18 06:35:40;;;;;;;13.05;9.70;;;26.40;1.00;27.30;100207.00;;;;5029010;28;20450;-79
2021/06/18 06:38:09;;;;;;;11.77;9.50;;;26.40;1.00;27.40;100218.00;;;;5030180;28;20501;-80
2021/06/18 06:40:37;;;;;;;10.27;9.15;;;26.60;1.00;27.50;100219.00;;;;5021680;28;20464;-80
2021/06/18 06:43:06;;;;;;;10.95;9.73;;;26.70;1.00;27.50;100229.00;;;;5030662;28;20526;-80
2021/06/18 06:45:34;;;;;;;14.70;13.10;;;26.70;1.00;27.70;100231.00;;;;5029834;28;20454;-80
2021/06/18 06:48:04;;;;;;;13.85;12.05;;;26.80;1.00;27.80;100238.00;;;;5034652;28;20450;-80
2021/06/18 06:50:34;;;;;;;14.32;11.65;;;27.00;1.00;27.90;100238.00;;;;5018920;28;20451;-80
2021/06/18 06:53:03;;;;;;;10.15;8.55;;;27.10;1.00;27.90;100252.00;;;;5019047;28;20422;-80
2021/06/18 06:55:31;;;;;;;10.38;9.23;;;27.10;1.00;27.80;100253.00;;;;5029471;28;20441;-81
2021/06/18 06:58:02;;;;;;;10.80;9.38;;;27.00;1.00;27.80;100239.00;;;;5027243;28;20429;-81
2021/06/18 07:00:31;;;;;;;11.23;9.02;;;26.90;1.00;28.00;100231.00;;;;4991426;28;20781;-79
2021/06/18 07:02:59;;;;;;;20.05;18.02;;;27.10;1.00;28.10;100243.00;;;;5035277;28;20509;-79
2021/06/18 07:05:28;;;;;;;13.90;12.02;;;27.30;1.00;28.20;100244.00;;;;5042021;28;20477;-79
2021/06/18 07:07:58;;;;;;;19.20;11.90;;;27.30;1.00;28.30;100251.00;;;;5028563;28;20520;-79
2021/06/18 07:10:26;;;;;;;11.93;9.85;;;27.40;1.00;28.40;100249.00;;;;5043035;28;20433;-80
2021/06/18 07:12:55;;;;;;;14.38;9.70;;;27.50;1.00;28.50;100256.00;;;;5039305;28;20432;-79
2021/06/18 07:15:24;;;;;;;12.15;9.80;;;27.60;1.00;28.50;100254.00;;;;5049535;28;20518;-79
2021/06/18 07:17:52;;;;;;;13.37;9.67;;;27.60;1.00;28.60;100249.00;;;;5054336;28;20444;-79
2021/06/18 07:20:20;;;;;;;12.45;9.50;;;27.70;1.00;28.60;100245.00;;;;5054098;28;20427;-78
2021/06/18 07:22:49;;;;;;;12.77;11.32;;;27.80;1.00;28.70;100241.00;;;;5057505;28;20429;-79
2021/06/18 07:25:19;;;;;;;10.88;9.23;;;27.90;1.00;28.80;100236.00;;;;5054596;28;20453;-78
2021/06/18 07:27:48;;;;;;;10.77;9.43;;;28.00;1.00;28.90;100240.00;;;;5060369;28;20511;-79
2021/06/18 07:30:17;;;;;;;10.52;9.43;;;28.10;1.00;28.90;100236.00;;;;5051538;28;20427;-78
2021/06/18 07:32:46;;;;;;;12.23;10.10;;;28.10;1.00;29.00;100238.00;;;;5072496;28;20421;-79
2021/06/18 07:35:15;;;;;;;10.98;9.88;;;28.20;1.00;29.10;100241.00;;;;5053317;28;20407;-81
2021/06/18 07:37:50;;;;;;;10.43;7.93;;;28.20;1.00;29.10;100236.00;;;;5051322;28;20430;-79
2021/06/18 07:40:32;;;;;;;13.75;12.35;;;28.30;1.00;29.10;100233.00;;;;5054483;28;20555;-79
2021/06/18 07:43:05;;;;;;;14.02;11.90;;;28.30;1.00;29.20;100241.00;;;;5050524;28;20423;-79
2021/06/18 07:45:36;;;;;;;10.85;9.52;;;28.40;1.00;29.30;100249.00;;;;5057075;28;20421;-79
2021/06/18 07:48:36;;;;;;;11.17;9.97;;;28.50;1.00;29.20;100250.00;;;;5056738;28;20534;-78
2021/06/18 07:51:09;;;;;;;11.18;8.70;;;28.40;1.00;29.40;100249.00;;;;5058863;28;20500;-80
2021/06/18 07:53:42;;;;;;;10.68;8.55;;;28.50;1.00;29.50;100250.00;;;;5056884;28;20431;-79
2021/06/18 07:56:22;;;;;;;9.20;8.30;;;28.70;1.00;29.50;100252.00;;;;5052720;28;20415;-79
2021/06/18 07:58:58;;;;;;;11.75;8.85;;;28.70;1.00;29.50;100249.00;;;;5055064;28;20447;-79
2021/06/18 08:01:29;;;;;;;10.45;8.60;;;28.70;1.00;29.50;100244.00;;;;5042704;28;20480;-81
2021/06/18 08:04:04;;;;;;;11.20;8.60;;;28.70;1.00;29.50;100238.00;;;;5062267;28;20427;-80
2021/06/18 08:06:42;;;;;;;10.02;8.95;;;28.70;1.00;29.60;100239.00;;;;5048085;28;20495;-80
2021/06/18 08:09:12;;;;;;;11.27;10.18;;;28.80;1.00;29.70;100235.00;;;;5047415;28;20426;-80
2021/06/18 08:12:03;;;;;;;;;;;;;;;;;;;;;
2021/06/18 08:14:42;;;;;;;10.38;9.20;;;29.10;1.00;29.90;100227.00;;;;5041571;28;20514;-79
2021/06/18 08:17:15;;;;;;;13.32;9.45;;;29.20;1.00;30.00;100235.00;;;;5052539;28;20435;-79
2021/06/18 08:19:47;;;;;;;11.60;9.10;;;29.30;1.00;30.10;100232.00;;;;5049744;28;20424;-80
2021/06/18 08:22:16;;;;;;;11.30;9.20;;;29.40;1.00;30.10;100230.00;;;;5038328;28;20434;-79
2021/06/18 08:24:45;;;;;;;9.70;8.20;;;29.50;1.00;30.10;100230.00;;;;5038700;28;20423;-79
2021/06/18 08:27:39;;;;;;;9.18;8.23;;;29.40;1.00;30.10;100239.00;;;;5036872;28;20701;-80
2021/06/18 08:30:10;;;;;;;9.27;8.10;;;29.40;1.00;30.10;100233.00;;;;5033660;28;20485;-80
2021/06/18 08:32:58;;;;;;;9.93;8.93;;;29.40;1.00;30.20;100232.00;;;;5034588;28;20452;-80
2021/06/18 08:35:30;;;;;;;10.07;9.05;;;29.50;1.00;30.30;100232.00;;;;5034809;28;20423;-80
2021/06/18 08:38:02;;;;;;;10.57;9.30;;;29.60;1.00;30.40;100225.00;;;;5038265;28;20423;-79
2021/06/18 08:40:43;;;;;;;11.52;10.32;;;29.70;1.00;30.40;100223.00;;;;5031033;28;20447;-79
2021/06/18 08:43:31;;;;;;;9.13;8.07;;;29.80;1.00;30.40;100218.00;;;;5037736;28;20457;-80
2021/06/18 08:49:03;;;;;;;9.30;8.40;;;29.90;1.00;30.50;100221.00;;;;5023696;28;20431;-81
2021/06/18 08:51:32;;;;;;;12.70;11.50;;;29.90;1.00;30.60;100222.00;;;;5036523;28;20441;-80
2021/06/18 08:54:01;;;;;;;10.45;9.35;;;30.00;1.00;30.70;100215.00;;;;5036635;28;22373;-80
2021/06/18 08:56:34;;;;;;;10.63;9.40;;;30.20;1.00;30.80;100220.00;;;;5048785;28;20493;-80
2021/06/18 08:59:06;;;;;;;10.02;8.75;;;30.20;1.00;30.80;100221.00;;;;5043003;28;20942;-79
2021/06/18 09:01:39;;;;;;;9.70;8.70;;;30.20;1.00;30.90;100222.00;;;;5036716;28;20419;-80
2021/06/18 09:04:09;;;;;;;10.15;8.63;;;30.30;1.00;31.00;100223.00;;;;5037017;28;20415;-80
2021/06/18 09:06:44;;;;;;;9.45;8.35;;;30.40;1.00;31.10;100219.00;;;;5038067;28;20422;-79
2021/06/18 09:09:30;;;;;;;13.85;7.70;;;30.60;1.00;31.20;100221.00;;;;5030031;28;20429;-80
2021/06/18 09:12:11;;;;;;;10.75;8.32;;;30.70;1.00;31.30;100224.00;;;;5032992;28;20419;-80
2021/06/18 09:14:45;;;;;;;11.52;8.30;;;30.80;1.00;31.50;100225.00;;;;5036696;28;20455;-80
2021/06/18 09:17:34;;;;;;;9.48;8.10;;;31.00;1.00;31.50;100223.00;;;;5034137;28;20870;-81
2021/06/18 09:20:27;;;;;;;9.32;7.60;;;31.20;1.00;31.70;100228.00;;;;5037718;28;20442;-81
2021/06/18 09:22:59;;;;;;;10.60;8.20;;;31.30;1.00;31.80;100229.00;;;;5053207;28;20516;-81
2021/06/18 09:25:41;;;;;;;10.23;8.33;;;31.40;1.00;31.90;100228.00;;;;5028548;28;20456;-81
2021/06/18 09:28:17;;;;;;;10.82;8.82;;;31.50;1.00;32.00;100228.00;;;;5037028;28;20443;-81
2021/06/18 09:31:05;;;;;;;9.80;8.40;;;31.60;1.00;32.00;100228.00;;;;5040768;28;20432;-79
2021/06/18 09:33:44;;;;;;;10.93;8.30;;;31.60;1.00;32.00;100217.00;;;;5033676;28;20433;-79
2021/06/18 09:36:12;;;;;;;10.98;8.35;;;31.50;1.00;32.00;100218.00;;;;5028145;28;20516;-80
2021/06/18 09:38:41;;;;;;;9.90;8.90;;;31.50;1.00;32.00;100219.00;;;;5041043;28;20455;-80
2021/06/18 09:41:30;;;;;;;9.27;8.38;;;31.50;1.00;32.10;100214.00;;;;5037357;28;20421;-80
2021/06/18 09:44:00;;;;;;;11.33;9.43;;;31.70;1.00;32.20;100226.00;;;;5053230;28;20441;-80
2021/06/18 09:46:49;;;;;;;10.43;9.43;;;31.70;1.00;32.20;100215.00;;;;5066738;28;20458;-80
2021/06/18 09:49:42;;;;;;;10.15;8.48;;;31.90;1.00;32.40;100219.00;;;;5060735;28;20527;-80
2021/06/18 09:52:15;;;;;;;10.13;9.13;;;32.00;1.00;32.40;100218.00;;;;5069484;28;20410;-80
2021/06/18 09:54:49;;;;;;;10.13;9.13;;;32.10;1.00;32.40;100215.00;;;;5068878;28;20412;-78
2021/06/18 09:57:20;;;;;;;10.10;9.10;;;32.00;1.00;32.50;100216.00;;;;5045535;28;20423;-80
2021/06/18 09:59:59;;;;;;;11.80;8.88;;;32.10;1.00;32.50;100215.00;;;;5052008;28;20482;-79
2021/06/18 10:02:42;;;;;;;11.02;8.77;;;32.10;1.00;32.60;100212.00;;;;5047948;28;20431;-80
2021/06/18 10:05:13;;;;;;;10.57;8.80;;;32.20;1.00;32.60;100214.00;;;;5043488;28;20414;-80
2021/06/18 10:07:43;;;;;;;11.53;8.93;;;32.30;1.00;32.70;100212.00;;;;5043800;28;20409;-79
2021/06/18 10:10:14;;;;;;;10.88;9.18;;;32.30;1.00;32.70;100207.00;;;;5053940;28;20487;-80
2021/06/18 10:12:45;;;;;;;10.60;9.05;;;32.20;1.00;32.70;100209.00;;;;5062267;28;20425;-80
2021/06/18 10:15:18;;;;;;;12.20;9.35;;;32.30;1.00;32.80;100218.00;;;;5053131;28;20418;-79
2021/06/18 10:17:51;;;;;;;10.43;9.30;;;32.40;1.00;32.80;100206.00;;;;5061564;28;20425;-80
2021/06/18 10:20:22;;;;;;;10.45;9.00;;;32.50;1.00;32.90;100208.00;;;;5031583;28;20425;-78
2021/06/18 10:22:59;;;;;;;11.00;8.70;;;32.50;1.00;32.90;100215.00;;;;5025472;28;20427;-80
2021/06/18 10:25:33;;;;;;;9.60;8.65;;;32.50;1.00;33.10;100214.00;;;;5034927;28;20447;-79
2021/06/18 10:28:06;;;;;;;9.35;8.45;;;32.70;1.00;33.20;100211.00;;;;5050425;28;20431;-80
2021/06/18 10:30:48;;;;;;;9.50;8.40;;;32.80;1.00;33.30;100210.00;;;;5044295;28;20481;-80
2021/06/18 10:33:36;;;;;;;10.00;9.00;;;33.00;1.00;33.30;100190.00;;;;5054314;28;20427;-78
2021/06/18 10:36:24;;;;;;;9.73;8.82;;;33.10;1.00;33.40;100191.00;;;;5056079;28;20449;-80
2021/06/18 10:39:12;;;;;;;10.85;8.70;;;33.00;1.00;33.50;100192.00;;;;5048262;28;20450;-80
2021/06/18 10:41:49;;;;;;;9.25;8.25;;;33.10;1.00;33.60;100190.00;;;;5052944;28;20415;-80
2021/06/18 10:44:50;;;;;;;8.88;7.97;;;33.30;1.00;33.70;100189.00;;;;5052222;28;20425;-79
2021/06/18 10:47:43;;;;;;;9.13;8.23;;;33.50;1.00;33.80;100187.00;;;;4976578;28;20428;-77
2021/06/18 10:50:49;;;;;;;9.63;8.30;;;33.60;1.00;33.90;100197.00;;;;5033814;28;21470;-78
2021/06/18 10:53:23;;;;;;;9.10;8.10;;;33.70;1.00;34.00;100183.00;;;;5063481;28;20431;-80
2021/06/18 10:55:55;;;;;;;12.00;8.43;;;33.70;1.00;34.00;100191.00;;;;5044697;28;20404;-79
2021/06/18 10:58:24;;;;;;;9.10;7.80;;;33.70;1.00;34.00;100186.00;;;;5043251;28;20754;-82
2021/06/18 11:00:52;;;;;;;9.32;8.35;;;33.70;1.00;34.10;100187.00;;;;5042426;28;20429;-79
2021/06/18 11:03:58;;;;;;;10.38;7.85;;;33.80;1.00;34.10;100188.00;;;;5049303;28;20427;-81
2021/06/18 11:06:48;;;;;;;9.27;7.80;;;33.90;1.00;34.30;100173.00;;;;5043615;28;20423;-81
2021/06/18 11:09:45;;;;;;;8.40;7.30;;;34.00;1.00;34.40;100185.00;;;;5048313;28;20447;-81
2021/06/18 11:12:56;;;;;;;9.33;8.00;;;34.10;1.00;34.50;100173.00;;;;5048698;28;20425;-79
2021/06/18 11:15:40;;;;;;;8.48;6.90;;;34.20;1.00;34.50;100172.00;;;;5023272;28;20423;-80